sensor_id;sensor_type;location;lat;lon;timestamp;P1;durP1;ratioP1;P2;durP2;ratioP2
50012;SDS011;35901;48.694;9.476;2023-12-04T00:00:07;36.53;;;18.27;;
50012;SDS011;35901;48.694;9.476;2023-12-04T00:02:39;43.63;;;20.77;;
50012;SDS011;35901;48.694;9.476;2023-12-04T00:05:05;32.80;;;16.53;;
50012;SDS011;35901;48.694;9.476;2023-12-04T00:07:32;36.60;;;17.73;;
50012;SDS011;35901;48.694;9.476;2023-12-04T00:09:57;36.50;;;17.20;;
50012;SDS011;35901;48.694;9.476;2023-12-04T00:12:23;31.10;;;15.50;;
50012;SDS011;35901;48.694;9.476;2023-12-04T00:14:48;28.47;;;14.83;;
50012;SDS011;35901;48.694;9.476;2023-12-04T00:17:14;38.13;;;17.73;;
50012;SDS011;35901;48.694;9.476;2023-12-04T00:19:40;35.57;;;17.17;;
50012;SDS011;35901;48.694;9.476;2023-12-04T00:22:06;36.17;;;17.00;;
50012;SDS011;35901;48.694;9.476;2023-12-04T00:24:31;33.73;;;16.90;;
50012;SDS011;35901;48.694;9.476;2023-12-04T00:26:57;33.00;;;17.10;;
50012;SDS011;35901;48.694;9.476;2023-12-04T00:29:23;29.93;;;14.37;;
50012;SDS011;35901;48.694;9.476;2023-12-04T00:31:49;31.47;;;15.23;;
50012;SDS011;35901;48.694;9.476;2023-12-04T00:34:14;31.93;;;16.07;;
50012;SDS011;35901;48.694;9.476;2023-12-04T00:36:40;30.70;;;16.40;;
50012;SDS011;35901;48.694;9.476;2023-12-04T00:39:06;32.63;;;14.93;;
50012;SDS011;35901;48.694;9.476;2023-12-04T00:41:31;33.63;;;15.97;;
50012;SDS011;35901;48.694;9.476;2023-12-04T00:43:57;34.43;;;15.77;;
50012;SDS011;35901;48.694;9.476;2023-12-04T00:46:22;30.67;;;13.90;;
50012;SDS011;35901;48.694;9.476;2023-12-04T00:48:48;29.83;;;14.07;;
50012;SDS011;35901;48.694;9.476;2023-12-04T00:51:14;34.93;;;16.33;;
50012;SDS011;35901;48.694;9.476;2023-12-04T00:53:39;34.30;;;16.23;;
50012;SDS011;35901;48.694;9.476;2023-12-04T00:56:05;26.17;;;12.57;;
50012;SDS011;35901;48.694;9.476;2023-12-04T01:02:00;22.33;;;11.47;;
50012;SDS011;35901;48.694;9.476;2023-12-04T01:04:26;26.80;;;12.93;;
50012;SDS011;35901;48.694;9.476;2023-12-04T01:06:52;36.37;;;16.03;;
50012;SDS011;35901;48.694;9.476;2023-12-04T01:09:17;30.63;;;14.20;;
50012;SDS011;35901;48.694;9.476;2023-12-04T01:11:49;32.17;;;15.30;;
50012;SDS011;35901;48.694;9.476;2023-12-04T01:14:18;35.30;;;16.53;;
50012;SDS011;35901;48.694;9.476;2023-12-04T01:16:44;36.17;;;16.03;;
50012;SDS011;35901;48.694;9.476;2023-12-04T01:19:10;31.97;;;15.40;;
50012;SDS011;35901;48.694;9.476;2023-12-04T01:21:36;30.00;;;15.53;;
50012;SDS011;35901;48.694;9.476;2023-12-04T01:24:02;34.43;;;16.47;;
50012;SDS011;35901;48.694;9.476;2023-12-04T01:26:27;31.77;;;15.60;;
50012;SDS011;35901;48.694;9.476;2023-12-04T01:28:53;35.63;;;17.10;;
50012;SDS011;35901;48.694;9.476;2023-12-04T01:31:19;29.97;;;15.03;;
50012;SDS011;35901;48.694;9.476;2023-12-04T01:33:44;29.73;;;15.43;;
50012;SDS011;35901;48.694;9.476;2023-12-04T01:36:10;28.20;;;14.37;;
50012;SDS011;35901;48.694;9.476;2023-12-04T01:38:37;32.73;;;15.53;;
50012;SDS011;35901;48.694;9.476;2023-12-04T01:41:02;35.07;;;17.07;;
50012;SDS011;35901;48.694;9.476;2023-12-04T01:43:28;33.10;;;16.10;;
50012;SDS011;35901;48.694;9.476;2023-12-04T01:45:54;31.30;;;14.33;;
50012;SDS011;35901;48.694;9.476;2023-12-04T01:48:20;33.83;;;15.73;;
50012;SDS011;35901;48.694;9.476;2023-12-04T01:50:46;34.87;;;15.20;;
50012;SDS011;35901;48.694;9.476;2023-12-04T01:53:12;32.93;;;15.33;;
50012;SDS011;35901;48.694;9.476;2023-12-04T01:55:39;34.27;;;16.90;;
50012;SDS011;35901;48.694;9.476;2023-12-04T01:58:06;37.43;;;16.50;;
50012;SDS011;35901;48.694;9.476;2023-12-04T02:00:32;34.37;;;16.57;;
50012;SDS011;35901;48.694;9.476;2023-12-04T02:02:58;34.93;;;16.60;;
50012;SDS011;35901;48.694;9.476;2023-12-04T02:05:25;33.33;;;14.80;;
50012;SDS011;35901;48.694;9.476;2023-12-04T02:07:52;20.60;;;11.53;;
50012;SDS011;35901;48.694;9.476;2023-12-04T02:10:18;30.07;;;15.60;;
50012;SDS011;35901;48.694;9.476;2023-12-04T02:12:44;31.07;;;15.03;;
50012;SDS011;35901;48.694;9.476;2023-12-04T02:15:10;29.23;;;12.77;;
50012;SDS011;35901;48.694;9.476;2023-12-04T02:17:36;31.17;;;15.97;;
50012;SDS011;35901;48.694;9.476;2023-12-04T02:20:02;32.43;;;15.53;;
50012;SDS011;35901;48.694;9.476;2023-12-04T02:22:29;35.00;;;16.30;;
50012;SDS011;35901;48.694;9.476;2023-12-04T02:24:54;31.70;;;15.13;;
50012;SDS011;35901;48.694;9.476;2023-12-04T02:27:26;36.60;;;18.30;;
50012;SDS011;35901;48.694;9.476;2023-12-04T02:30:05;29.90;;;14.83;;
50012;SDS011;35901;48.694;9.476;2023-12-04T02:32:34;29.67;;;13.93;;
50012;SDS011;35901;48.694;9.476;2023-12-04T02:35:03;35.23;;;15.70;;
50012;SDS011;35901;48.694;9.476;2023-12-04T02:37:31;33.63;;;16.40;;
50012;SDS011;35901;48.694;9.476;2023-12-04T02:39:57;31.60;;;16.80;;
50012;SDS011;35901;48.694;9.476;2023-12-04T02:42:23;33.00;;;16.87;;
50012;SDS011;35901;48.694;9.476;2023-12-04T02:44:52;32.40;;;15.20;;
50012;SDS011;35901;48.694;9.476;2023-12-04T02:47:18;30.27;;;14.37;;
50012;SDS011;35901;48.694;9.476;2023-12-04T02:49:44;35.90;;;16.83;;
50012;SDS011;35901;48.694;9.476;2023-12-04T02:52:10;30.73;;;14.83;;
50012;SDS011;35901;48.694;9.476;2023-12-04T02:54:36;34.07;;;15.93;;
50012;SDS011;35901;48.694;9.476;2023-12-04T02:57:01;33.23;;;15.73;;
50012;SDS011;35901;48.694;9.476;2023-12-04T02:59:27;34.43;;;16.33;;
50012;SDS011;35901;48.694;9.476;2023-12-04T03:01:53;32.33;;;15.93;;
50012;SDS011;35901;48.694;9.476;2023-12-04T03:04:19;31.90;;;15.93;;
50012;SDS011;35901;48.694;9.476;2023-12-04T03:06:45;30.17;;;14.90;;
50012;SDS011;35901;48.694;9.476;2023-12-04T03:09:10;36.07;;;17.13;;
50012;SDS011;35901;48.694;9.476;2023-12-04T03:11:39;29.53;;;15.57;;
50012;SDS011;35901;48.694;9.476;2023-12-04T03:14:05;25.13;;;12.83;;
50012;SDS011;35901;48.694;9.476;2023-12-04T03:16:31;32.20;;;15.20;;
50012;SDS011;35901;48.694;9.476;2023-12-04T03:18:57;28.57;;;14.10;;
50012;SDS011;35901;48.694;9.476;2023-12-04T03:21:23;31.60;;;15.53;;
50012;SDS011;35901;48.694;9.476;2023-12-04T03:23:48;27.87;;;13.77;;
50012;SDS011;35901;48.694;9.476;2023-12-04T03:26:14;30.60;;;15.37;;
50012;SDS011;35901;48.694;9.476;2023-12-04T03:28:40;25.93;;;13.60;;
50012;SDS011;35901;48.694;9.476;2023-12-04T03:31:07;31.90;;;16.23;;
50012;SDS011;35901;48.694;9.476;2023-12-04T03:33:32;28.60;;;15.13;;
50012;SDS011;35901;48.694;9.476;2023-12-04T03:35:59;27.53;;;14.57;;
50012;SDS011;35901;48.694;9.476;2023-12-04T03:38:25;26.43;;;14.30;;
50012;SDS011;35901;48.694;9.476;2023-12-04T03:40:50;26.70;;;13.57;;
50012;SDS011;35901;48.694;9.476;2023-12-04T03:43:16;30.67;;;15.03;;
50012;SDS011;35901;48.694;9.476;2023-12-04T03:45:42;31.77;;;14.63;;
50012;SDS011;35901;48.694;9.476;2023-12-04T03:48:07;29.93;;;14.60;;
50012;SDS011;35901;48.694;9.476;2023-12-04T03:50:33;34.93;;;15.50;;
50012;SDS011;35901;48.694;9.476;2023-12-04T03:52:59;29.67;;;16.33;;
50012;SDS011;35901;48.694;9.476;2023-12-04T03:55:25;23.30;;;12.77;;
50012;SDS011;35901;48.694;9.476;2023-12-04T03:57:52;26.63;;;12.47;;
50012;SDS011;35901;48.694;9.476;2023-12-04T04:00:18;9.87;;;6.27;;
50012;SDS011;35901;48.694;9.476;2023-12-04T04:06:32;27.43;;;13.57;;
50012;SDS011;35901;48.694;9.476;2023-12-04T04:08:58;21.97;;;11.63;;
50012;SDS011;35901;48.694;9.476;2023-12-04T04:11:23;11.23;;;5.17;;
50012;SDS011;35901;48.694;9.476;2023-12-04T04:13:49;16.30;;;9.17;;
50012;SDS011;35901;48.694;9.476;2023-12-04T04:16:15;20.93;;;12.23;;
50012;SDS011;35901;48.694;9.476;2023-12-04T04:18:41;15.50;;;9.17;;
50012;SDS011;35901;48.694;9.476;2023-12-04T04:21:08;9.40;;;5.93;;
50012;SDS011;35901;48.694;9.476;2023-12-04T04:23:34;10.60;;;6.67;;
50012;SDS011;35901;48.694;9.476;2023-12-04T04:26:00;20.23;;;12.33;;
50012;SDS011;35901;48.694;9.476;2023-12-04T04:28:25;20.87;;;13.10;;
50012;SDS011;35901;48.694;9.476;2023-12-04T04:30:51;19.17;;;11.70;;
50012;SDS011;35901;48.694;9.476;2023-12-04T04:36:12;20.03;;;11.73;;
50012;SDS011;35901;48.694;9.476;2023-12-04T04:38:41;16.73;;;10.53;;
50012;SDS011;35901;48.694;9.476;2023-12-04T04:41:12;21.40;;;11.83;;
50012;SDS011;35901;48.694;9.476;2023-12-04T04:43:39;18.60;;;10.37;;
50012;SDS011;35901;48.694;9.476;2023-12-04T04:46:05;18.23;;;11.10;;
50012;SDS011;35901;48.694;9.476;2023-12-04T04:48:31;23.43;;;13.33;;
50012;SDS011;35901;48.694;9.476;2023-12-04T04:50:56;22.97;;;13.87;;
50012;SDS011;35901;48.694;9.476;2023-12-04T04:53:22;17.93;;;10.33;;
50012;SDS011;35901;48.694;9.476;2023-12-04T04:55:48;22.10;;;12.40;;
50012;SDS011;35901;48.694;9.476;2023-12-04T04:58:14;21.73;;;12.37;;
50012;SDS011;35901;48.694;9.476;2023-12-04T05:00:41;21.43;;;12.40;;
50012;SDS011;35901;48.694;9.476;2023-12-04T05:06:55;19.17;;;11.63;;
50012;SDS011;35901;48.694;9.476;2023-12-04T05:09:20;22.67;;;12.10;;
50012;SDS011;35901;48.694;9.476;2023-12-04T05:11:46;20.43;;;12.00;;
50012;SDS011;35901;48.694;9.476;2023-12-04T05:14:12;20.47;;;12.30;;
50012;SDS011;35901;48.694;9.476;2023-12-04T05:16:37;23.10;;;13.63;;
50012;SDS011;35901;48.694;9.476;2023-12-04T05:19:03;23.63;;;13.57;;
50012;SDS011;35901;48.694;9.476;2023-12-04T05:21:29;21.30;;;11.83;;
50012;SDS011;35901;48.694;9.476;2023-12-04T05:23:54;22.57;;;12.93;;
50012;SDS011;35901;48.694;9.476;2023-12-04T05:26:20;21.13;;;12.77;;
50012;SDS011;35901;48.694;9.476;2023-12-04T05:28:46;23.80;;;13.43;;
50012;SDS011;35901;48.694;9.476;2023-12-04T05:31:11;24.57;;;13.57;;
50012;SDS011;35901;48.694;9.476;2023-12-04T05:36:48;25.17;;;12.97;;
50012;SDS011;35901;48.694;9.476;2023-12-04T05:39:14;27.80;;;13.80;;
50012;SDS011;35901;48.694;9.476;2023-12-04T05:41:40;25.47;;;13.40;;
50012;SDS011;35901;48.694;9.476;2023-12-04T05:44:05;22.00;;;12.00;;
50012;SDS011;35901;48.694;9.476;2023-12-04T05:46:31;24.00;;;13.53;;
50012;SDS011;35901;48.694;9.476;2023-12-04T05:48:57;25.40;;;14.53;;
50012;SDS011;35901;48.694;9.476;2023-12-04T05:51:23;26.33;;;15.03;;
50012;SDS011;35901;48.694;9.476;2023-12-04T05:53:49;20.90;;;11.83;;
50012;SDS011;35901;48.694;9.476;2023-12-04T05:56:14;23.00;;;13.27;;
50012;SDS011;35901;48.694;9.476;2023-12-04T05:58:40;24.77;;;13.57;;
50012;SDS011;35901;48.694;9.476;2023-12-04T06:01:06;27.33;;;14.50;;
50012;SDS011;35901;48.694;9.476;2023-12-04T06:03:32;22.17;;;12.83;;
50012;SDS011;35901;48.694;9.476;2023-12-04T06:05:58;21.47;;;11.63;;
50012;SDS011;35901;48.694;9.476;2023-12-04T06:08:23;24.87;;;13.13;;
50012;SDS011;35901;48.694;9.476;2023-12-04T06:10:49;28.63;;;15.27;;
50012;SDS011;35901;48.694;9.476;2023-12-04T06:13:15;27.37;;;14.67;;
50012;SDS011;35901;48.694;9.476;2023-12-04T06:15:40;24.93;;;14.07;;
50012;SDS011;35901;48.694;9.476;2023-12-04T06:18:06;26.37;;;15.43;;
50012;SDS011;35901;48.694;9.476;2023-12-04T06:20:32;26.10;;;13.53;;
50012;SDS011;35901;48.694;9.476;2023-12-04T06:22:58;26.87;;;14.53;;
50012;SDS011;35901;48.694;9.476;2023-12-04T06:25:24;25.80;;;13.70;;
50012;SDS011;35901;48.694;9.476;2023-12-04T06:27:50;30.80;;;15.23;;
50012;SDS011;35901;48.694;9.476;2023-12-04T06:30:16;27.17;;;13.50;;
50012;SDS011;35901;48.694;9.476;2023-12-04T06:32:43;31.70;;;16.83;;
50012;SDS011;35901;48.694;9.476;2023-12-04T06:35:09;26.67;;;13.40;;
50012;SDS011;35901;48.694;9.476;2023-12-04T06:37:36;29.63;;;16.30;;
50012;SDS011;35901;48.694;9.476;2023-12-04T06:40:03;28.00;;;15.60;;
50012;SDS011;35901;48.694;9.476;2023-12-04T06:42:30;26.00;;;15.17;;
50012;SDS011;35901;48.694;9.476;2023-12-04T06:44:56;26.33;;;15.00;;
50012;SDS011;35901;48.694;9.476;2023-12-04T06:47:22;24.93;;;14.17;;
50012;SDS011;35901;48.694;9.476;2023-12-04T06:49:48;26.57;;;14.57;;
50012;SDS011;35901;48.694;9.476;2023-12-04T06:52:14;24.03;;;12.73;;
50012;SDS011;35901;48.694;9.476;2023-12-04T06:54:39;22.87;;;12.93;;
50012;SDS011;35901;48.694;9.476;2023-12-04T06:57:05;23.43;;;13.23;;
50012;SDS011;35901;48.694;9.476;2023-12-04T06:59:31;27.30;;;15.10;;
50012;SDS011;35901;48.694;9.476;2023-12-04T07:01:58;27.60;;;15.03;;
50012;SDS011;35901;48.694;9.476;2023-12-04T07:06:53;21.57;;;12.03;;
50012;SDS011;35901;48.694;9.476;2023-12-04T07:09:19;26.77;;;13.67;;
50012;SDS011;35901;48.694;9.476;2023-12-04T07:11:45;11.90;;;7.80;;
50012;SDS011;35901;48.694;9.476;2023-12-04T07:14:11;28.23;;;14.97;;
50012;SDS011;35901;48.694;9.476;2023-12-04T07:16:43;15.40;;;8.47;;
50012;SDS011;35901;48.694;9.476;2023-12-04T07:19:09;15.43;;;8.70;;
50012;SDS011;35901;48.694;9.476;2023-12-04T07:21:36;27.00;;;14.23;;
50012;SDS011;35901;48.694;9.476;2023-12-04T07:24:02;23.40;;;12.50;;
50012;SDS011;35901;48.694;9.476;2023-12-04T07:26:28;23.93;;;13.80;;
50012;SDS011;35901;48.694;9.476;2023-12-04T07:28:55;20.10;;;11.57;;
50012;SDS011;35901;48.694;9.476;2023-12-04T07:31:21;21.83;;;13.10;;
50012;SDS011;35901;48.694;9.476;2023-12-04T07:33:53;26.17;;;13.67;;
50012;SDS011;35901;48.694;9.476;2023-12-04T07:36:19;24.97;;;13.00;;
50012;SDS011;35901;48.694;9.476;2023-12-04T07:38:44;26.83;;;15.27;;
50012;SDS011;35901;48.694;9.476;2023-12-04T07:41:10;25.83;;;15.00;;
50012;SDS011;35901;48.694;9.476;2023-12-04T07:43:36;25.47;;;14.83;;
50012;SDS011;35901;48.694;9.476;2023-12-04T07:46:02;22.67;;;12.93;;
50012;SDS011;35901;48.694;9.476;2023-12-04T07:48:28;25.10;;;14.83;;
50012;SDS011;35901;48.694;9.476;2023-12-04T07:50:55;17.47;;;10.00;;
50012;SDS011;35901;48.694;9.476;2023-12-04T07:53:21;14.77;;;6.97;;
50012;SDS011;35901;48.694;9.476;2023-12-04T07:55:48;13.63;;;6.53;;
50012;SDS011;35901;48.694;9.476;2023-12-04T07:58:16;21.10;;;12.07;;
50012;SDS011;35901;48.694;9.476;2023-12-04T08:00:43;22.80;;;13.50;;
50012;SDS011;35901;48.694;9.476;2023-12-04T08:06:56;7.43;;;4.10;;
50012;SDS011;35901;48.694;9.476;2023-12-04T08:09:22;14.53;;;8.97;;
50012;SDS011;35901;48.694;9.476;2023-12-04T08:11:48;13.53;;;7.60;;
50012;SDS011;35901;48.694;9.476;2023-12-04T08:14:13;21.50;;;10.47;;
50012;SDS011;35901;48.694;9.476;2023-12-04T08:16:41;18.17;;;11.13;;
50012;SDS011;35901;48.694;9.476;2023-12-04T08:19:06;18.33;;;10.33;;
50012;SDS011;35901;48.694;9.476;2023-12-04T08:21:32;14.73;;;8.70;;
50012;SDS011;35901;48.694;9.476;2023-12-04T08:23:58;17.37;;;9.03;;
50012;SDS011;35901;48.694;9.476;2023-12-04T08:26:24;17.47;;;9.93;;
50012;SDS011;35901;48.694;9.476;2023-12-04T08:28:51;20.20;;;13.27;;
50012;SDS011;35901;48.694;9.476;2023-12-04T08:31:17;21.90;;;13.87;;
50012;SDS011;35901;48.694;9.476;2023-12-04T08:37:29;19.57;;;12.03;;
50012;SDS011;35901;48.694;9.476;2023-12-04T08:39:56;21.43;;;12.63;;
50012;SDS011;35901;48.694;9.476;2023-12-04T08:42:22;22.13;;;12.83;;
50012;SDS011;35901;48.694;9.476;2023-12-04T08:44:47;23.33;;;14.20;;
50012;SDS011;35901;48.694;9.476;2023-12-04T08:47:13;23.20;;;14.00;;
50012;SDS011;35901;48.694;9.476;2023-12-04T08:49:42;24.00;;;14.27;;
50012;SDS011;35901;48.694;9.476;2023-12-04T08:52:08;21.57;;;12.87;;
50012;SDS011;35901;48.694;9.476;2023-12-04T08:54:35;23.00;;;13.87;;
50012;SDS011;35901;48.694;9.476;2023-12-04T08:57:04;23.23;;;14.33;;
50012;SDS011;35901;48.694;9.476;2023-12-04T08:59:29;22.03;;;13.03;;
50012;SDS011;35901;48.694;9.476;2023-12-04T09:01:55;21.63;;;12.37;;
50012;SDS011;35901;48.694;9.476;2023-12-04T09:08:07;18.77;;;10.50;;
50012;SDS011;35901;48.694;9.476;2023-12-04T09:10:33;22.70;;;11.87;;
50012;SDS011;35901;48.694;9.476;2023-12-04T09:12:59;23.60;;;12.13;;
50012;SDS011;35901;48.694;9.476;2023-12-04T09:15:25;20.90;;;11.63;;
50012;SDS011;35901;48.694;9.476;2023-12-04T09:17:51;21.10;;;13.13;;
50012;SDS011;35901;48.694;9.476;2023-12-04T09:20:16;23.13;;;13.83;;
50012;SDS011;35901;48.694;9.476;2023-12-04T09:22:42;22.97;;;14.07;;
50012;SDS011;35901;48.694;9.476;2023-12-04T09:25:08;22.10;;;13.63;;
50012;SDS011;35901;48.694;9.476;2023-12-04T09:27:34;22.47;;;13.87;;
50012;SDS011;35901;48.694;9.476;2023-12-04T09:30:00;21.40;;;13.87;;
50012;SDS011;35901;48.694;9.476;2023-12-04T09:32:26;20.97;;;13.33;;
50012;SDS011;35901;48.694;9.476;2023-12-04T09:38:39;21.53;;;13.93;;
50012;SDS011;35901;48.694;9.476;2023-12-04T09:41:05;17.63;;;11.43;;
50012;SDS011;35901;48.694;9.476;2023-12-04T09:43:34;20.63;;;12.93;;
50012;SDS011;35901;48.694;9.476;2023-12-04T09:46:00;20.50;;;13.50;;
50012;SDS011;35901;48.694;9.476;2023-12-04T09:48:27;20.50;;;14.00;;
50012;SDS011;35901;48.694;9.476;2023-12-04T09:50:55;21.47;;;13.07;;
50012;SDS011;35901;48.694;9.476;2023-12-04T09:53:24;22.07;;;14.13;;
50012;SDS011;35901;48.694;9.476;2023-12-04T09:55:52;19.57;;;13.43;;
50012;SDS011;35901;48.694;9.476;2023-12-04T09:58:25;20.83;;;13.30;;
50012;SDS011;35901;48.694;9.476;2023-12-04T10:00:54;20.57;;;13.90;;
50012;SDS011;35901;48.694;9.476;2023-12-04T10:03:20;20.53;;;13.67;;
50012;SDS011;35901;48.694;9.476;2023-12-04T10:09:33;17.47;;;12.83;;
50012;SDS011;35901;48.694;9.476;2023-12-04T10:12:03;18.40;;;12.93;;
50012;SDS011;35901;48.694;9.476;2023-12-04T10:14:32;20.00;;;13.30;;
50012;SDS011;35901;48.694;9.476;2023-12-04T10:20:15;20.20;;;12.77;;
50012;SDS011;35901;48.694;9.476;2023-12-04T10:22:55;18.17;;;12.93;;
50012;SDS011;35901;48.694;9.476;2023-12-04T10:25:40;18.50;;;12.87;;
50012;SDS011;35901;48.694;9.476;2023-12-04T10:28:11;20.00;;;12.87;;
50012;SDS011;35901;48.694;9.476;2023-12-04T10:30:50;19.00;;;13.10;;
50012;SDS011;35901;48.694;9.476;2023-12-04T10:33:32;19.60;;;13.03;;
50012;SDS011;35901;48.694;9.476;2023-12-04T10:36:11;20.40;;;13.90;;
50012;SDS011;35901;48.694;9.476;2023-12-04T10:38:37;17.37;;;12.23;;
50012;SDS011;35901;48.694;9.476;2023-12-04T10:41:11;19.97;;;12.97;;
50012;SDS011;35901;48.694;9.476;2023-12-04T10:43:46;17.87;;;12.53;;
50012;SDS011;35901;48.694;9.476;2023-12-04T10:49:04;18.10;;;12.90;;
50012;SDS011;35901;48.694;9.476;2023-12-04T10:51:31;18.07;;;13.10;;
50012;SDS011;35901;48.694;9.476;2023-12-04T10:54:00;17.70;;;12.60;;
50012;SDS011;35901;48.694;9.476;2023-12-04T10:56:36;17.30;;;12.33;;
50012;SDS011;35901;48.694;9.476;2023-12-04T10:59:03;18.47;;;13.03;;
50012;SDS011;35901;48.694;9.476;2023-12-04T11:01:41;18.50;;;12.43;;
50012;SDS011;35901;48.694;9.476;2023-12-04T11:04:11;15.70;;;11.07;;
50012;SDS011;35901;48.694;9.476;2023-12-04T11:06:43;17.97;;;12.10;;
50012;SDS011;35901;48.694;9.476;2023-12-04T11:09:13;15.47;;;12.00;;
50012;SDS011;35901;48.694;9.476;2023-12-04T11:11:40;18.67;;;12.53;;
50012;SDS011;35901;48.694;9.476;2023-12-04T11:14:11;16.00;;;11.67;;
50012;SDS011;35901;48.694;9.476;2023-12-04T11:16:47;16.60;;;12.30;;
50012;SDS011;35901;48.694;9.476;2023-12-04T11:19:28;17.73;;;13.33;;
50012;SDS011;35901;48.694;9.476;2023-12-04T11:21:56;14.90;;;11.73;;
50012;SDS011;35901;48.694;9.476;2023-12-04T11:24:25;14.90;;;11.00;;
50012;SDS011;35901;48.694;9.476;2023-12-04T11:26:51;15.10;;;10.50;;
50012;SDS011;35901;48.694;9.476;2023-12-04T11:29:21;15.23;;;10.87;;
50012;SDS011;35901;48.694;9.476;2023-12-04T11:31:48;14.73;;;10.23;;
50012;SDS011;35901;48.694;9.476;2023-12-04T11:34:14;14.93;;;10.27;;
50012;SDS011;35901;48.694;9.476;2023-12-04T11:36:39;19.03;;;12.00;;
50012;SDS011;35901;48.694;9.476;2023-12-04T11:39:09;19.30;;;11.83;;
50012;SDS011;35901;48.694;9.476;2023-12-04T11:41:38;19.80;;;12.73;;
50012;SDS011;35901;48.694;9.476;2023-12-04T11:44:11;20.20;;;13.33;;
50012;SDS011;35901;48.694;9.476;2023-12-04T11:46:39;22.60;;;14.37;;
50012;SDS011;35901;48.694;9.476;2023-12-04T11:49:30;22.63;;;14.57;;
50012;SDS011;35901;48.694;9.476;2023-12-04T11:51:59;21.77;;;14.70;;
50012;SDS011;35901;48.694;9.476;2023-12-04T11:54:27;20.37;;;14.40;;
50012;SDS011;35901;48.694;9.476;2023-12-04T11:59:36;22.17;;;14.47;;
50012;SDS011;35901;48.694;9.476;2023-12-04T12:02:03;21.07;;;13.17;;
50012;SDS011;35901;48.694;9.476;2023-12-04T12:04:36;17.37;;;12.67;;
50012;SDS011;35901;48.694;9.476;2023-12-04T12:07:04;19.33;;;13.37;;
50012;SDS011;35901;48.694;9.476;2023-12-04T12:09:31;20.67;;;14.43;;
50012;SDS011;35901;48.694;9.476;2023-12-04T12:12:01;20.80;;;13.57;;
50012;SDS011;35901;48.694;9.476;2023-12-04T12:14:28;22.60;;;14.83;;
50012;SDS011;35901;48.694;9.476;2023-12-04T12:16:55;15.07;;;10.83;;
50012;SDS011;35901;48.694;9.476;2023-12-04T12:19:20;18.43;;;12.80;;
50012;SDS011;35901;48.694;9.476;2023-12-04T12:21:47;20.90;;;12.50;;
50012;SDS011;35901;48.694;9.476;2023-12-04T12:24:14;15.33;;;8.97;;
50012;SDS011;35901;48.694;9.476;2023-12-04T12:26:40;13.67;;;8.77;;
50012;SDS011;35901;48.694;9.476;2023-12-04T12:29:06;22.30;;;14.70;;
50012;SDS011;35901;48.694;9.476;2023-12-04T12:31:34;19.67;;;12.07;;
50012;SDS011;35901;48.694;9.476;2023-12-04T12:34:00;22.33;;;15.37;;
50012;SDS011;35901;48.694;9.476;2023-12-04T12:36:25;22.60;;;14.27;;
50012;SDS011;35901;48.694;9.476;2023-12-04T12:38:52;12.30;;;8.03;;
50012;SDS011;35901;48.694;9.476;2023-12-04T12:41:19;16.17;;;9.57;;
50012;SDS011;35901;48.694;9.476;2023-12-04T12:43:45;19.27;;;12.20;;
50012;SDS011;35901;48.694;9.476;2023-12-04T12:46:12;19.07;;;12.07;;
50012;SDS011;35901;48.694;9.476;2023-12-04T12:48:38;20.53;;;11.83;;
50012;SDS011;35901;48.694;9.476;2023-12-04T12:51:04;18.87;;;11.67;;
50012;SDS011;35901;48.694;9.476;2023-12-04T12:53:36;12.87;;;8.87;;
50012;SDS011;35901;48.694;9.476;2023-12-04T12:56:02;23.43;;;14.33;;
50012;SDS011;35901;48.694;9.476;2023-12-04T12:58:28;20.67;;;11.40;;
50012;SDS011;35901;48.694;9.476;2023-12-04T13:00:54;22.40;;;14.70;;
50012;SDS011;35901;48.694;9.476;2023-12-04T13:03:21;21.53;;;12.27;;
50012;SDS011;35901;48.694;9.476;2023-12-04T13:05:47;21.97;;;12.43;;
50012;SDS011;35901;48.694;9.476;2023-12-04T13:08:13;18.47;;;10.53;;
50012;SDS011;35901;48.694;9.476;2023-12-04T13:10:40;20.83;;;13.17;;
50012;SDS011;35901;48.694;9.476;2023-12-04T13:13:09;24.30;;;15.23;;
50012;SDS011;35901;48.694;9.476;2023-12-04T13:15:36;27.10;;;16.80;;
50012;SDS011;35901;48.694;9.476;2023-12-04T13:18:02;24.63;;;16.23;;
50012;SDS011;35901;48.694;9.476;2023-12-04T13:20:28;22.30;;;15.17;;
50012;SDS011;35901;48.694;9.476;2023-12-04T13:22:54;23.47;;;15.00;;
50012;SDS011;35901;48.694;9.476;2023-12-04T13:25:19;25.80;;;15.87;;
50012;SDS011;35901;48.694;9.476;2023-12-04T13:27:46;21.50;;;12.60;;
50012;SDS011;35901;48.694;9.476;2023-12-04T13:30:12;21.87;;;13.43;;
50012;SDS011;35901;48.694;9.476;2023-12-04T13:32:38;23.13;;;14.30;;
50012;SDS011;35901;48.694;9.476;2023-12-04T13:35:04;23.17;;;14.77;;
50012;SDS011;35901;48.694;9.476;2023-12-04T13:37:33;23.07;;;14.63;;
50012;SDS011;35901;48.694;9.476;2023-12-04T13:40:01;20.50;;;11.53;;
50012;SDS011;35901;48.694;9.476;2023-12-04T13:42:37;15.10;;;9.20;;
50012;SDS011;35901;48.694;9.476;2023-12-04T13:45:22;21.70;;;13.13;;
50012;SDS011;35901;48.694;9.476;2023-12-04T13:47:48;21.03;;;13.00;;
50012;SDS011;35901;48.694;9.476;2023-12-04T13:50:15;20.47;;;12.03;;
50012;SDS011;35901;48.694;9.476;2023-12-04T13:52:42;23.53;;;13.90;;
50012;SDS011;35901;48.694;9.476;2023-12-04T13:55:10;21.03;;;12.93;;
50012;SDS011;35901;48.694;9.476;2023-12-04T13:57:46;20.40;;;12.10;;
50012;SDS011;35901;48.694;9.476;2023-12-04T14:00:31;19.73;;;11.37;;
50012;SDS011;35901;48.694;9.476;2023-12-04T14:02:57;26.37;;;15.40;;
50012;SDS011;35901;48.694;9.476;2023-12-04T14:05:32;28.67;;;17.83;;
50012;SDS011;35901;48.694;9.476;2023-12-04T14:07:59;30.47;;;18.90;;
50012;SDS011;35901;48.694;9.476;2023-12-04T14:10:25;28.23;;;18.00;;
50012;SDS011;35901;48.694;9.476;2023-12-04T14:12:52;27.83;;;18.47;;
50012;SDS011;35901;48.694;9.476;2023-12-04T14:15:20;30.47;;;19.60;;
50012;SDS011;35901;48.694;9.476;2023-12-04T14:17:46;19.67;;;10.23;;
50012;SDS011;35901;48.694;9.476;2023-12-04T14:20:12;18.07;;;8.90;;
50012;SDS011;35901;48.694;9.476;2023-12-04T14:22:43;16.50;;;9.93;;
50012;SDS011;35901;48.694;9.476;2023-12-04T14:25:13;26.63;;;14.57;;
50012;SDS011;35901;48.694;9.476;2023-12-04T14:27:39;28.67;;;16.87;;
50012;SDS011;35901;48.694;9.476;2023-12-04T14:30:08;30.97;;;19.97;;
50012;SDS011;35901;48.694;9.476;2023-12-04T14:32:35;29.80;;;18.97;;
50012;SDS011;35901;48.694;9.476;2023-12-04T14:35:01;28.43;;;19.07;;
50012;SDS011;35901;48.694;9.476;2023-12-04T14:37:28;31.37;;;19.80;;
50012;SDS011;35901;48.694;9.476;2023-12-04T14:39:53;33.20;;;20.03;;
50012;SDS011;35901;48.694;9.476;2023-12-04T14:42:19;29.13;;;17.90;;
50012;SDS011;35901;48.694;9.476;2023-12-04T14:44:45;31.27;;;20.50;;
50012;SDS011;35901;48.694;9.476;2023-12-04T14:47:11;31.27;;;20.30;;
50012;SDS011;35901;48.694;9.476;2023-12-04T14:49:37;30.60;;;20.17;;
50012;SDS011;35901;48.694;9.476;2023-12-04T14:52:03;29.40;;;18.50;;
50012;SDS011;35901;48.694;9.476;2023-12-04T14:54:31;33.70;;;20.57;;
50012;SDS011;35901;48.694;9.476;2023-12-04T14:57:17;31.00;;;19.77;;
50012;SDS011;35901;48.694;9.476;2023-12-04T15:00:01;32.83;;;20.20;;
50012;SDS011;35901;48.694;9.476;2023-12-04T15:02:46;27.13;;;17.57;;
50012;SDS011;35901;48.694;9.476;2023-12-04T15:05:12;29.20;;;18.03;;
50012;SDS011;35901;48.694;9.476;2023-12-04T15:07:56;30.67;;;20.10;;
50012;SDS011;35901;48.694;9.476;2023-12-04T15:10:48;31.43;;;18.37;;